Athol, Idaho
Current Conditions -  °F | °C
As of 1:35 AM on Friday 19 Dec 2014 (Local Time) from KCOE Reporting Station
Overcast Overcast  
Wind Chill: 37°   Ceiling: 4200
Heat Index: 37°   Visibility: 6mi
Dew Point: 34°   Wind: 0mph
Humidity: 87%   Direction: NA
Pressure: 29.91"   Gusts: NA
Location:  47.95°N, 116.71°W
Report Text: KCOE 190935Z AUTO 00000KT 6SM BKN042 BKN049 OVC070 03/01 A2991 RMK AO1
Loading
Personal Weather Stations






























Interactive Weather Map New forecast layout! Learn more

10-Day Weather Forecast

Advertisements
Track Severe Weather on mobile